createdAt,value
2023-01-21T00:01:15.942Z,4.40
2023-01-21T00:03:45.944Z,4.30
2023-01-21T00:06:14.973Z,4.40
2023-01-21T00:08:43.205Z,4.30
2023-01-21T00:11:14.224Z,4.40
2023-01-21T00:13:42.930Z,4.40
2023-01-21T00:16:12.340Z,4.40
2023-01-21T00:18:40.527Z,4.40
2023-01-21T00:21:10.351Z,4.40
2023-01-21T00:23:38.450Z,4.40
2023-01-21T00:26:08.261Z,4.40
2023-01-21T00:28:37.354Z,4.40
2023-01-21T00:31:08.863Z,4.30
2023-01-21T00:33:38.136Z,4.30
2023-01-21T00:36:09.839Z,4.30
2023-01-21T00:38:38.394Z,4.30
2023-01-21T00:41:09.000Z,4.30
2023-01-21T00:43:37.356Z,4.30
2023-01-21T00:46:05.969Z,4.30
2023-01-21T00:48:34.066Z,4.30
2023-01-21T00:51:02.161Z,4.30
2023-01-21T00:53:33.829Z,4.30
2023-01-21T00:56:03.338Z,4.30
2023-01-21T00:58:31.575Z,4.30
2023-01-21T01:01:03.558Z,4.30
2023-01-21T01:03:32.466Z,4.30
2023-01-21T01:06:04.695Z,4.20
2023-01-21T01:08:34.303Z,4.30
2023-01-21T01:11:02.665Z,4.30
2023-01-21T01:13:30.802Z,4.30
2023-01-21T01:16:00.015Z,4.30
2023-01-21T01:18:29.429Z,4.30
2023-01-21T01:20:58.221Z,4.20
2023-01-21T01:23:26.779Z,4.20
2023-01-21T01:26:00.993Z,4.10
2023-01-21T01:28:29.732Z,4.10
2023-01-21T01:30:58.274Z,4.00
2023-01-21T01:33:27.079Z,3.90
2023-01-21T01:35:55.239Z,3.90
2023-01-21T01:38:24.195Z,3.90
2023-01-21T01:40:53.634Z,3.80
2023-01-21T01:43:25.606Z,3.70
2023-01-21T01:45:54.214Z,3.70
2023-01-21T01:48:28.166Z,3.80
2023-01-21T01:50:59.183Z,3.70
2023-01-21T01:53:28.449Z,3.70
2023-01-21T01:55:56.771Z,3.80
2023-01-21T01:58:26.470Z,3.70
2023-01-21T02:00:54.505Z,3.60
2023-01-21T02:03:40.280Z,3.60
2023-01-21T02:06:08.663Z,3.60
2023-01-21T02:08:36.742Z,3.60
2023-01-21T02:11:11.882Z,3.60
2023-01-21T02:13:43.104Z,3.70
2023-01-21T02:16:35.274Z,3.70
2023-01-21T02:19:18.960Z,3.60
2023-01-21T02:22:00.156Z,3.50
2023-01-21T02:25:00.596Z,3.40
2023-01-21T02:27:49.602Z,3.60
2023-01-21T02:30:47.832Z,3.60
2023-01-21T02:33:45.262Z,3.60
2023-01-21T02:36:37.732Z,3.40
2023-01-21T02:39:16.760Z,3.50
2023-01-21T02:41:57.131Z,3.50
2023-01-21T02:44:33.353Z,3.70
2023-01-21T02:47:07.762Z,3.70
2023-01-21T02:49:41.945Z,3.60
2023-01-21T02:52:17.519Z,3.60
2023-01-21T02:54:54.630Z,3.60
2023-01-21T02:57:44.982Z,3.50
2023-01-21T03:00:19.069Z,3.40
2023-01-21T03:03:17.637Z,3.40
2023-01-21T03:06:19.361Z,3.30
2023-01-21T03:08:53.949Z,3.30
2023-01-21T03:11:23.188Z,3.40
2023-01-21T03:14:12.653Z,3.40
2023-01-21T03:16:58.651Z,3.30
2023-01-21T03:19:33.467Z,3.30
2023-01-21T03:22:05.877Z,3.40
2023-01-21T03:24:35.480Z,3.30
2023-01-21T03:27:05.445Z,3.30
2023-01-21T03:29:35.416Z,3.30
2023-01-21T03:32:07.235Z,3.30
2023-01-21T03:34:41.339Z,3.20
2023-01-21T03:37:15.612Z,3.10
2023-01-21T03:39:50.111Z,3.20
2023-01-21T03:42:18.532Z,3.20
2023-01-21T03:44:47.239Z,3.20
2023-01-21T03:47:23.415Z,3.20
2023-01-21T03:49:55.217Z,3.10
2023-01-21T03:52:26.645Z,3.10
2023-01-21T03:54:55.144Z,3.10
2023-01-21T03:57:24.244Z,3.10
2023-01-21T03:59:52.239Z,3.00
2023-01-21T04:02:21.033Z,3.00
2023-01-21T04:04:49.284Z,3.00
2023-01-21T04:07:17.860Z,3.00
2023-01-21T04:09:47.247Z,3.00
2023-01-21T04:12:15.255Z,2.90
2023-01-21T04:14:43.360Z,2.90
2023-01-21T04:17:11.483Z,3.00
2023-01-21T04:19:39.596Z,3.10
2023-01-21T04:22:07.627Z,3.00
2023-01-21T04:24:35.908Z,3.00
2023-01-21T04:27:05.410Z,3.10
2023-01-21T04:29:33.622Z,3.00
2023-01-21T04:32:01.729Z,3.10
2023-01-21T04:34:29.832Z,3.10
2023-01-21T04:36:57.871Z,3.20
2023-01-21T04:39:25.975Z,3.20
2023-01-21T04:41:54.008Z,3.30
2023-01-21T04:44:23.387Z,3.20
2023-01-21T04:46:51.438Z,3.10
2023-01-21T04:49:19.462Z,3.10
2023-01-21T04:51:47.519Z,3.10
2023-01-21T04:54:15.540Z,3.10
2023-01-21T04:56:43.649Z,3.10
2023-01-21T04:59:12.359Z,3.10
2023-01-21T05:01:41.739Z,3.10
2023-01-21T05:04:09.770Z,3.00
2023-01-21T05:06:37.928Z,3.00
2023-01-21T05:09:06.017Z,3.10
2023-01-21T05:11:34.060Z,3.10
2023-01-21T05:14:02.067Z,3.10
2023-01-21T05:16:30.142Z,3.20
2023-01-21T05:18:59.494Z,3.20
2023-01-21T05:21:27.521Z,3.20
2023-01-21T05:23:55.595Z,3.20
2023-01-21T05:26:23.821Z,3.20
2023-01-21T05:28:51.817Z,3.30
2023-01-21T05:31:19.982Z,3.30
2023-01-21T05:33:48.161Z,3.20
2023-01-21T05:36:17.545Z,3.10
2023-01-21T05:38:45.520Z,3.20
2023-01-21T05:41:13.568Z,3.10
2023-01-21T05:43:41.621Z,3.20
2023-01-21T05:46:09.658Z,3.20
2023-01-21T05:48:37.723Z,3.30
2023-01-21T05:51:06.106Z,3.20
2023-01-21T05:53:35.456Z,3.20
2023-01-21T05:56:03.485Z,3.30
2023-01-21T05:58:31.586Z,3.30
2023-01-21T06:00:59.816Z,3.20
2023-01-21T06:03:28.145Z,3.20
2023-01-21T06:05:56.194Z,3.20
2023-01-21T06:08:24.335Z,3.10
2023-01-21T06:10:54.810Z,3.10
2023-01-21T06:13:23.269Z,3.20
2023-01-21T06:15:51.663Z,3.20
2023-01-21T06:18:19.733Z,3.10
2023-01-21T06:20:47.760Z,3.00
2023-01-21T06:23:16.059Z,3.00
2023-01-21T06:25:44.068Z,3.00
2023-01-21T06:28:14.133Z,3.00
2023-01-21T06:30:42.184Z,3.00
2023-01-21T06:33:10.420Z,3.10
2023-01-21T06:35:38.445Z,3.10
2023-01-21T06:38:06.462Z,3.20
2023-01-21T06:40:34.482Z,3.20
2023-01-21T06:43:02.518Z,3.20
2023-01-21T06:45:31.876Z,3.20
2023-01-21T06:47:59.902Z,3.20
2023-01-21T06:50:27.972Z,3.20
2023-01-21T06:52:55.964Z,3.20
2023-01-21T06:55:23.974Z,3.20
2023-01-21T06:57:52.073Z,3.10
2023-01-21T07:00:20.813Z,3.10
2023-01-21T07:02:50.260Z,3.00
2023-01-21T07:05:20.591Z,3.10
2023-01-21T07:07:48.634Z,3.10
2023-01-21T07:10:17.229Z,3.10
2023-01-21T07:12:45.394Z,3.20
2023-01-21T07:15:13.449Z,3.10
2023-01-21T07:17:41.495Z,3.20
2023-01-21T07:20:13.146Z,3.20
2023-01-21T07:22:41.569Z,3.20
2023-01-21T07:25:10.332Z,3.20
2023-01-21T07:27:38.558Z,3.20
2023-01-21T07:30:07.859Z,3.20
2023-01-21T07:32:35.870Z,3.30
2023-01-21T07:35:03.887Z,3.30
2023-01-21T07:37:33.251Z,3.30
2023-01-21T07:40:01.274Z,3.30
2023-01-21T07:42:29.237Z,3.30
2023-01-21T07:44:59.443Z,3.40
2023-01-21T07:47:27.574Z,3.30
2023-01-21T07:49:55.577Z,3.40
2023-01-21T07:52:23.571Z,3.30
2023-01-21T07:54:53.126Z,3.30
2023-01-21T07:57:21.141Z,3.20
2023-01-21T07:59:49.168Z,3.20
2023-01-21T08:02:17.264Z,3.20
2023-01-21T08:04:45.545Z,3.30
2023-01-21T08:07:13.612Z,3.40
2023-01-21T08:09:41.752Z,3.30
2023-01-21T08:12:11.505Z,3.30
2023-01-21T08:14:39.589Z,3.30
2023-01-21T08:17:07.771Z,3.20
2023-01-21T08:19:35.812Z,3.20
2023-01-21T08:22:03.858Z,3.20
2023-01-21T08:24:31.884Z,3.20
2023-01-21T08:27:00.444Z,3.30
2023-01-21T08:29:29.984Z,3.40
2023-01-21T08:31:58.924Z,3.30
2023-01-21T08:34:27.072Z,3.30
2023-01-21T08:36:55.165Z,3.20
2023-01-21T08:39:23.212Z,3.30
2023-01-21T08:41:51.224Z,3.30
2023-01-21T08:44:19.318Z,3.30
2023-01-21T08:46:48.734Z,3.30
2023-01-21T08:49:17.001Z,3.40
2023-01-21T08:51:45.166Z,3.40
2023-01-21T08:54:13.204Z,3.40
2023-01-21T08:56:41.214Z,3.40
2023-01-21T08:59:09.306Z,3.40
2023-01-21T09:01:40.815Z,3.50
2023-01-21T09:04:10.522Z,3.50
2023-01-21T09:06:38.581Z,3.50
2023-01-21T09:09:06.701Z,3.40
2023-01-21T09:11:34.789Z,3.50
2023-01-21T09:14:04.034Z,3.50
2023-01-21T09:16:32.753Z,3.50
2023-01-21T09:19:01.902Z,3.50
2023-01-21T09:21:31.274Z,3.50
2023-01-21T09:23:59.295Z,3.50
2023-01-21T09:26:27.494Z,3.60
2023-01-21T09:28:57.738Z,3.50
2023-01-21T09:31:27.543Z,3.60
2023-01-21T09:33:57.908Z,3.50
2023-01-21T09:36:27.391Z,3.60
2023-01-21T09:38:57.043Z,3.60
2023-01-21T09:41:27.783Z,3.60
2023-01-21T09:44:03.697Z,3.50
2023-01-21T09:46:36.872Z,3.50
2023-01-21T09:49:08.030Z,3.50
2023-01-21T09:51:46.044Z,3.60
2023-01-21T09:54:21.717Z,3.70
2023-01-21T09:57:11.655Z,3.70
2023-01-21T09:59:52.052Z,3.70
2023-01-21T10:02:28.964Z,3.70
2023-01-21T10:05:16.178Z,3.60
2023-01-21T10:07:50.255Z,3.70
2023-01-21T10:10:24.869Z,3.70
2023-01-21T10:13:04.825Z,3.70
2023-01-21T10:15:43.282Z,3.70
2023-01-21T10:18:14.657Z,3.80
2023-01-21T10:20:48.576Z,3.80
2023-01-21T10:23:21.190Z,3.90
2023-01-21T10:25:51.626Z,4.00
2023-01-21T10:28:23.784Z,4.00
2023-01-21T10:30:53.913Z,3.90
2023-01-21T10:33:25.131Z,3.90
2023-01-21T10:36:06.495Z,3.90
2023-01-21T10:38:41.365Z,3.90
2023-01-21T10:41:27.427Z,3.90
2023-01-21T10:44:03.252Z,3.90
2023-01-21T10:46:41.118Z,4.00
2023-01-21T10:49:24.267Z,4.00
2023-01-21T10:51:57.565Z,3.90
2023-01-21T10:54:39.701Z,3.90
2023-01-21T10:57:17.717Z,4.00
2023-01-21T10:59:46.504Z,4.00
2023-01-21T11:02:24.424Z,3.80
2023-01-21T11:04:53.114Z,3.70
2023-01-21T11:07:23.088Z,3.70
2023-01-21T11:09:52.012Z,3.70
2023-01-21T11:12:24.800Z,3.90
2023-01-21T11:14:56.636Z,4.00
2023-01-21T11:17:36.691Z,4.00
2023-01-21T11:20:08.053Z,3.90
2023-01-21T11:22:43.599Z,3.90
2023-01-21T11:25:26.409Z,4.00
2023-01-21T11:27:55.784Z,4.00
2023-01-21T11:30:49.444Z,4.00
2023-01-21T11:33:25.266Z,3.90
2023-01-21T11:35:55.004Z,4.00
2023-01-21T11:38:34.803Z,4.10
2023-01-21T11:41:14.971Z,4.10
2023-01-21T11:43:46.244Z,4.10
2023-01-21T11:46:36.317Z,4.10
2023-01-21T11:49:25.826Z,4.10
2023-01-21T11:52:18.458Z,4.00
2023-01-21T11:54:47.682Z,4.00
2023-01-21T11:57:32.043Z,4.10
2023-01-21T12:00:09.431Z,4.00
2023-01-21T12:02:44.757Z,4.10
2023-01-21T12:05:17.192Z,4.00
2023-01-21T12:07:50.184Z,4.10
2023-01-21T12:10:27.777Z,4.10
2023-01-21T12:13:17.466Z,4.10
2023-01-21T12:16:13.551Z,4.10
2023-01-21T12:19:03.926Z,4.10
2023-01-21T12:21:47.529Z,4.10
2023-01-21T12:24:31.417Z,4.10
2023-01-21T12:27:07.722Z,4.10
2023-01-21T12:29:55.250Z,4.10
2023-01-21T12:32:28.870Z,4.10
2023-01-21T12:35:01.062Z,4.10
2023-01-21T12:37:33.883Z,4.10
2023-01-21T12:40:14.076Z,4.20
2023-01-21T12:42:47.051Z,4.20
2023-01-21T12:45:20.154Z,4.10
2023-01-21T12:47:55.745Z,4.20
2023-01-21T12:50:29.862Z,4.20
2023-01-21T12:53:11.614Z,4.20
2023-01-21T12:55:56.794Z,4.20
2023-01-21T12:58:27.461Z,4.20
2023-01-21T13:00:56.715Z,4.20
2023-01-21T13:03:33.841Z,4.20
2023-01-21T13:06:07.234Z,4.20
2023-01-21T13:08:54.945Z,4.30
2023-01-21T13:11:27.097Z,4.40
2023-01-21T13:14:16.021Z,4.30
2023-01-21T13:16:49.116Z,4.30
2023-01-21T13:19:18.827Z,4.30
2023-01-21T13:21:55.016Z,4.30
2023-01-21T13:24:32.337Z,4.30
2023-01-21T13:27:12.217Z,4.40
2023-01-21T13:29:49.131Z,4.30
2023-01-21T13:32:30.304Z,4.40
2023-01-21T13:35:13.570Z,4.40
2023-01-21T13:37:50.405Z,4.40
2023-01-21T13:40:28.149Z,4.50
2023-01-21T13:43:03.247Z,4.60
2023-01-21T13:45:44.467Z,4.50
2023-01-21T13:48:26.305Z,4.40
2023-01-21T13:51:14.776Z,4.40
2023-01-21T13:53:55.814Z,4.40
2023-01-21T13:56:38.040Z,4.50
2023-01-21T13:59:12.571Z,4.50
2023-01-21T14:01:47.449Z,4.60
2023-01-21T14:04:22.485Z,4.60
2023-01-21T14:06:56.692Z,4.60
2023-01-21T14:09:29.629Z,4.60
2023-01-21T14:12:03.491Z,4.60
2023-01-21T14:15:17.574Z,4.60
2023-01-21T14:18:05.282Z,4.50
2023-01-21T14:21:06.343Z,4.50
2023-01-21T14:24:06.765Z,4.40
2023-01-21T14:26:48.617Z,4.50
2023-01-21T14:29:24.235Z,4.50
2023-01-21T14:31:56.507Z,4.50
2023-01-21T14:34:28.531Z,4.50
2023-01-21T14:37:05.158Z,4.50
2023-01-21T14:39:44.376Z,4.40
2023-01-21T14:42:17.317Z,4.40
2023-01-21T14:45:01.953Z,4.40
2023-01-21T14:47:43.741Z,4.40
2023-01-21T14:50:12.616Z,4.40
2023-01-21T14:52:44.685Z,4.50
2023-01-21T14:55:30.215Z,4.50
2023-01-21T14:58:01.669Z,4.40
2023-01-21T15:00:32.313Z,4.50
2023-01-21T15:03:16.062Z,4.50
2023-01-21T15:05:46.345Z,4.50
2023-01-21T15:08:22.419Z,4.40
2023-01-21T15:10:54.012Z,4.50
2023-01-21T15:13:31.492Z,4.50
2023-01-21T15:16:15.766Z,4.50
2023-01-21T15:18:48.445Z,4.50
2023-01-21T15:21:36.151Z,4.50
2023-01-21T15:24:26.032Z,4.50
2023-01-21T15:27:17.453Z,4.40
2023-01-21T15:29:48.184Z,4.50
2023-01-21T15:32:25.129Z,4.40
2023-01-21T15:34:56.231Z,4.50
2023-01-21T15:37:25.884Z,4.50
2023-01-21T15:40:00.413Z,4.40
2023-01-21T15:42:38.017Z,4.40
2023-01-21T15:45:20.566Z,4.30
2023-01-21T15:48:11.259Z,4.30
2023-01-21T15:50:45.899Z,4.30
2023-01-21T15:53:49.969Z,4.30
2023-01-21T15:56:38.050Z,4.40
2023-01-21T15:59:20.250Z,4.30
2023-01-21T16:02:04.287Z,4.30
2023-01-21T16:04:39.259Z,4.30
2023-01-21T16:07:18.109Z,4.30
2023-01-21T16:09:57.895Z,4.30
2023-01-21T16:12:34.977Z,4.40
2023-01-21T16:15:11.385Z,4.50
2023-01-21T16:17:53.431Z,4.50
2023-01-21T16:20:21.569Z,4.40
2023-01-21T16:22:54.241Z,4.40
2023-01-21T16:25:24.224Z,4.40
2023-01-21T16:27:54.299Z,4.40
2023-01-21T16:30:26.646Z,4.30
2023-01-21T16:33:19.818Z,4.30
2023-01-21T16:35:50.110Z,4.30
2023-01-21T16:38:20.968Z,4.30
2023-01-21T16:40:50.758Z,4.30
2023-01-21T16:43:25.533Z,4.40
2023-01-21T16:45:55.329Z,4.40
2023-01-21T16:48:26.484Z,4.30
2023-01-21T16:50:55.495Z,4.30
2023-01-21T16:53:25.618Z,4.30
2023-01-21T16:55:56.426Z,4.30
2023-01-21T16:58:29.531Z,4.30
2023-01-21T17:01:11.624Z,4.30
2023-01-21T17:03:41.040Z,4.30
2023-01-21T17:06:14.959Z,4.30
2023-01-21T17:08:47.262Z,4.20
2023-01-21T17:11:15.359Z,4.30
2023-01-21T17:13:45.487Z,4.20
2023-01-21T17:16:27.452Z,4.30
2023-01-21T17:18:59.316Z,4.30
2023-01-21T17:21:36.172Z,4.40
2023-01-21T17:24:06.556Z,4.30
2023-01-21T17:26:38.270Z,4.30
2023-01-21T17:29:12.105Z,4.30
2023-01-21T17:31:42.309Z,4.30
2023-01-21T17:34:30.324Z,4.30
2023-01-21T17:36:59.016Z,4.30
2023-01-21T17:40:00.670Z,4.30
2023-01-21T17:42:38.834Z,4.30
2023-01-21T17:45:08.390Z,4.30
2023-01-21T17:47:57.543Z,4.30
2023-01-21T17:50:30.522Z,4.20
2023-01-21T17:53:01.745Z,4.30
2023-01-21T17:55:33.028Z,4.30
2023-01-21T17:58:04.611Z,4.30
2023-01-21T18:00:38.707Z,4.30
2023-01-21T18:03:06.836Z,4.30
2023-01-21T18:05:38.285Z,4.20
2023-01-21T18:08:14.732Z,4.30
2023-01-21T18:10:43.343Z,4.30
2023-01-21T18:13:12.726Z,4.30
2023-01-21T18:15:41.720Z,4.30
2023-01-21T18:18:17.405Z,4.30
2023-01-21T18:20:47.287Z,4.30
2023-01-21T18:23:17.922Z,4.40
2023-01-21T18:25:48.694Z,4.40
2023-01-21T18:28:19.773Z,4.30
2023-01-21T18:30:48.678Z,4.30
2023-01-21T18:33:17.313Z,4.30
2023-01-21T18:35:48.847Z,4.40
2023-01-21T18:38:21.654Z,4.40
2023-01-21T18:40:49.783Z,4.40
2023-01-21T18:43:18.396Z,4.30
2023-01-21T18:45:46.435Z,4.30
2023-01-21T18:48:16.403Z,4.30
2023-01-21T18:50:45.812Z,4.40
2023-01-21T18:53:14.080Z,4.30
2023-01-21T18:55:45.172Z,4.40
2023-01-21T18:58:14.538Z,4.40
2023-01-21T19:00:42.942Z,4.40
2023-01-21T19:03:14.668Z,4.40
2023-01-21T19:05:47.501Z,4.40
2023-01-21T19:08:18.174Z,4.40
2023-01-21T19:10:46.203Z,4.40
2023-01-21T19:13:14.241Z,4.40
2023-01-21T19:15:42.685Z,4.40
2023-01-21T19:18:11.964Z,4.50
2023-01-21T19:20:41.559Z,4.40
2023-01-21T19:23:15.535Z,4.40
2023-01-21T19:25:46.184Z,4.40
2023-01-21T19:28:14.249Z,4.40
2023-01-21T19:30:45.005Z,4.40
2023-01-21T19:33:13.545Z,4.50
2023-01-21T19:35:44.986Z,4.50
2023-01-21T19:38:17.279Z,4.50
2023-01-21T19:40:45.628Z,4.50
2023-01-21T19:43:14.713Z,4.50
2023-01-21T19:45:43.499Z,4.50
2023-01-21T19:48:13.648Z,4.50
2023-01-21T19:50:42.071Z,4.50
2023-01-21T19:53:11.541Z,4.40
2023-01-21T19:55:42.215Z,4.40
2023-01-21T19:58:17.798Z,4.40
2023-01-21T20:00:48.085Z,4.40
2023-01-21T20:03:16.526Z,4.50
2023-01-21T20:05:44.698Z,4.50
2023-01-21T20:08:14.732Z,4.50
2023-01-21T20:10:44.661Z,4.50
2023-01-21T20:13:13.625Z,4.50
2023-01-21T20:15:43.481Z,4.50
2023-01-21T20:18:18.338Z,4.50
2023-01-21T20:20:46.373Z,4.60
2023-01-21T20:23:16.797Z,4.50
2023-01-21T20:25:49.523Z,4.50
2023-01-21T20:28:19.521Z,4.50
2023-01-21T20:30:48.484Z,4.50
2023-01-21T20:33:18.125Z,4.50
2023-01-21T20:35:48.366Z,4.50
2023-01-21T20:38:20.470Z,4.50
2023-01-21T20:40:49.824Z,4.60
2023-01-21T20:43:20.064Z,4.60
2023-01-21T20:45:50.007Z,4.60
2023-01-21T20:48:20.713Z,4.50
2023-01-21T20:50:49.099Z,4.40
2023-01-21T20:53:17.227Z,4.40
2023-01-21T20:55:47.341Z,4.50
2023-01-21T20:58:18.020Z,4.50
2023-01-21T21:00:47.374Z,4.60
2023-01-21T21:03:16.600Z,4.60
2023-01-21T21:05:45.197Z,4.70
2023-01-21T21:08:16.160Z,4.60
2023-01-21T21:10:44.955Z,4.60
2023-01-21T21:13:14.064Z,4.50
2023-01-21T21:15:46.535Z,4.60
2023-01-21T21:18:15.346Z,4.60
2023-01-21T21:20:43.476Z,4.60
2023-01-21T21:23:14.642Z,4.50
2023-01-21T21:25:45.342Z,4.60
2023-01-21T21:28:15.298Z,4.60
2023-01-21T21:30:46.103Z,4.60
2023-01-21T21:33:17.742Z,4.60
2023-01-21T21:35:46.728Z,4.60
2023-01-21T21:38:17.073Z,4.60
2023-01-21T21:40:47.541Z,4.60
2023-01-21T21:43:32.504Z,4.50
2023-01-21T21:46:23.255Z,4.50
2023-01-21T21:48:52.334Z,4.50
2023-01-21T21:51:22.143Z,4.40
2023-01-21T21:53:50.533Z,4.40
2023-01-21T21:56:20.676Z,4.40
2023-01-21T21:58:49.442Z,4.40
2023-01-21T22:01:20.549Z,4.40
2023-01-21T22:03:48.967Z,4.50
2023-01-21T22:06:18.765Z,4.50
2023-01-21T22:08:47.118Z,4.50
2023-01-21T22:11:16.605Z,4.50
2023-01-21T22:13:46.825Z,4.60
2023-01-21T22:16:18.167Z,4.60
2023-01-21T22:18:46.421Z,4.50
2023-01-21T22:21:16.463Z,4.60
2023-01-21T22:23:44.830Z,4.60
2023-01-21T22:26:15.048Z,4.60
2023-01-21T22:28:44.442Z,4.60
2023-01-21T22:31:15.407Z,4.60
2023-01-21T22:33:45.279Z,4.60
2023-01-21T22:36:16.208Z,4.60
2023-01-21T22:38:45.037Z,4.60
2023-01-21T22:41:14.271Z,4.70
2023-01-21T22:43:44.761Z,4.70
2023-01-21T22:46:15.009Z,4.60
2023-01-21T22:48:44.668Z,4.70
2023-01-21T22:51:13.681Z,4.60
2023-01-21T22:53:43.669Z,4.60
2023-01-21T22:56:13.201Z,4.50
2023-01-21T22:58:41.566Z,4.70
2023-01-21T23:01:10.474Z,4.70
2023-01-21T23:03:38.569Z,4.70
2023-01-21T23:06:09.286Z,4.60
2023-01-21T23:08:37.980Z,4.60
2023-01-21T23:11:08.497Z,4.60
2023-01-21T23:13:36.710Z,4.60
2023-01-21T23:16:07.818Z,4.60
2023-01-21T23:18:40.145Z,4.60
2023-01-21T23:21:10.646Z,4.60
2023-01-21T23:23:38.931Z,4.70
2023-01-21T23:26:08.870Z,4.80
2023-01-21T23:28:37.771Z,4.70
2023-01-21T23:31:06.865Z,4.70
2023-01-21T23:33:35.301Z,4.70
2023-01-21T23:36:03.444Z,4.60
2023-01-21T23:38:32.886Z,4.60
2023-01-21T23:41:05.944Z,4.50
2023-01-21T23:43:34.071Z,4.60
2023-01-21T23:46:02.226Z,4.60
2023-01-21T23:48:30.433Z,4.60
2023-01-21T23:51:03.666Z,4.60
2023-01-21T23:53:33.624Z,4.60
2023-01-21T23:56:05.829Z,4.60
2023-01-21T23:58:34.831Z,4.60
